createdAt,value
2023-05-23T00:01:46.766Z,100746.78
2023-05-23T00:04:18.740Z,100748.41
2023-05-23T00:06:50.645Z,100749.06
2023-05-23T00:09:19.258Z,100748.41
2023-05-23T00:11:47.593Z,100753.28
2023-05-23T00:14:16.363Z,100761.22
2023-05-23T00:16:46.393Z,100764.91
2023-05-23T00:19:16.159Z,100768.97
2023-05-23T00:21:45.720Z,100779.03
2023-05-23T00:24:18.797Z,100766.53
2023-05-23T00:26:47.470Z,100770.91
2023-05-23T00:29:16.843Z,100767.22
2023-05-23T00:31:46.681Z,100776.13
2023-05-23T00:34:15.593Z,100777.59
2023-05-23T00:36:44.057Z,100782.47
2023-05-23T00:39:19.043Z,100779.22
2023-05-23T00:41:51.786Z,100777.59
2023-05-23T00:44:22.105Z,100778.09
2023-05-23T00:46:53.066Z,100779.06
2023-05-23T00:49:21.408Z,100794.44
2023-05-23T00:51:50.187Z,100796.22
2023-05-23T00:54:32.223Z,100797.22
2023-05-23T00:57:16.263Z,100797.03
2023-05-23T00:59:46.850Z,100794.78
2023-05-23T01:02:15.141Z,100790.25
2023-05-23T01:04:44.177Z,100794.94
2023-05-23T01:07:12.403Z,100787.00
2023-05-23T01:09:40.772Z,100782.94
2023-05-23T01:12:22.026Z,100781.66
2023-05-23T01:15:06.701Z,100787.81
2023-05-23T01:17:41.859Z,100781.47
2023-05-23T01:20:12.794Z,100784.88
2023-05-23T01:22:53.799Z,100790.25
2023-05-23T01:25:29.243Z,100790.25
2023-05-23T01:28:01.935Z,100785.88
2023-05-23T01:30:46.827Z,100787.31
2023-05-23T01:33:16.525Z,100796.72
2023-05-23T01:35:45.386Z,100790.09
2023-05-23T01:38:13.689Z,100796.72
2023-05-23T01:40:42.161Z,100791.22
2023-05-23T01:43:11.858Z,100793.47
2023-05-23T01:45:40.806Z,100795.09
2023-05-23T01:48:11.684Z,100789.59
2023-05-23T01:50:40.826Z,100795.75
2023-05-23T01:53:10.326Z,100796.06
2023-05-23T01:55:39.782Z,100798.19
2023-05-23T01:58:09.546Z,100795.56
2023-05-23T02:00:39.431Z,100805.47
2023-05-23T02:03:16.076Z,100802.25
2023-05-23T02:05:44.595Z,100799.00
2023-05-23T02:08:13.182Z,100804.34
2023-05-23T02:10:41.443Z,100802.88
2023-05-23T02:13:10.018Z,100800.13
2023-05-23T02:15:39.793Z,100799.47
2023-05-23T02:18:08.505Z,100796.88
2023-05-23T02:20:36.850Z,100802.56
2023-05-23T02:23:05.350Z,100797.53
2023-05-23T02:25:33.600Z,100802.88
2023-05-23T02:28:02.086Z,100803.84
2023-05-23T02:30:30.650Z,100800.13
2023-05-23T02:33:00.268Z,100803.06
2023-05-23T02:35:58.639Z,100804.34
2023-05-23T02:38:27.807Z,100805.97
2023-05-23T02:40:57.639Z,100813.75
2023-05-23T02:43:26.031Z,100814.88
2023-05-23T02:45:54.445Z,100821.22
2023-05-23T02:48:24.160Z,100832.06
2023-05-23T02:50:58.238Z,100826.41
2023-05-23T02:53:26.917Z,100838.22
2023-05-23T02:55:55.169Z,100826.72
2023-05-23T02:58:24.089Z,100834.81
2023-05-23T03:00:52.952Z,100833.03
2023-05-23T03:03:22.160Z,100836.28
2023-05-23T03:06:00.624Z,100830.41
2023-05-23T03:08:29.246Z,100823.28
2023-05-23T03:10:57.758Z,100834.31
2023-05-23T03:13:26.491Z,100836.25
2023-05-23T03:16:00.496Z,100839.19
2023-05-23T03:18:29.193Z,100845.03
2023-05-23T03:20:57.800Z,100836.91
2023-05-23T03:23:27.581Z,100855.38
2023-05-23T03:25:56.153Z,100845.66
2023-05-23T03:28:24.741Z,100851.81
2023-05-23T03:30:53.604Z,100860.06
2023-05-23T03:33:22.472Z,100861.50
2023-05-23T03:35:51.536Z,100865.56
2023-05-23T03:38:20.176Z,100864.25
2023-05-23T03:40:50.123Z,100865.06
2023-05-23T03:43:18.740Z,100870.91
2023-05-23T03:45:47.565Z,100872.34
2023-05-23T03:48:16.102Z,100870.03
2023-05-23T03:50:44.658Z,100874.75
2023-05-23T03:53:13.496Z,100878.81
2023-05-23T03:55:42.314Z,100873.78
2023-05-23T03:58:12.574Z,100878.16
2023-05-23T04:00:41.198Z,100881.38
2023-05-23T04:03:10.894Z,100892.53
2023-05-23T04:05:39.786Z,100893.53
2023-05-23T04:08:08.816Z,100903.91
2023-05-23T04:10:37.488Z,100891.63
2023-05-23T04:13:06.677Z,100889.00
2023-05-23T04:15:36.574Z,100894.78
2023-05-23T04:18:05.356Z,100897.69
2023-05-23T04:20:34.148Z,100899.66
2023-05-23T04:23:02.792Z,100895.00
2023-05-23T04:25:31.456Z,100889.50
2023-05-23T04:27:59.867Z,100898.75
2023-05-23T04:30:30.470Z,100903.63
2023-05-23T04:33:00.977Z,100904.25
2023-05-23T04:35:43.872Z,100907.47
2023-05-23T04:38:15.235Z,100908.94
2023-05-23T04:40:43.676Z,100905.69
2023-05-23T04:43:14.507Z,100909.41
2023-05-23T04:45:44.048Z,100912.19
2023-05-23T04:48:17.160Z,100908.44
2023-05-23T04:50:48.798Z,100915.91
2023-05-23T04:53:17.623Z,100917.06
2023-05-23T04:55:46.534Z,100920.97
2023-05-23T04:58:15.649Z,100907.19
2023-05-23T05:00:44.901Z,100912.03
2023-05-23T05:03:14.792Z,100920.28
2023-05-23T05:05:43.175Z,100921.28
2023-05-23T05:08:11.575Z,100917.56
2023-05-23T05:10:41.766Z,100927.91
2023-05-23T05:13:10.410Z,100933.91
2023-05-23T05:15:38.707Z,100942.19
2023-05-23T05:18:07.365Z,100950.22
2023-05-23T05:20:37.306Z,100949.03
2023-05-23T05:23:05.671Z,100948.84
2023-05-23T05:25:36.159Z,100939.97
2023-05-23T05:28:06.136Z,100951.91
2023-05-23T05:30:35.333Z,100945.72
2023-05-23T05:33:04.372Z,100953.91
2023-05-23T05:35:32.887Z,100956.06
2023-05-23T05:38:02.632Z,100960.16
2023-05-23T05:40:30.911Z,100965.97
2023-05-23T05:42:59.510Z,100963.72
2023-05-23T05:45:28.442Z,100969.09
2023-05-23T05:47:56.813Z,100974.28
2023-05-23T05:50:25.416Z,100961.28
2023-05-23T05:53:09.659Z,100973.44
2023-05-23T05:55:38.406Z,100980.28
2023-05-23T05:58:07.171Z,100975.69
2023-05-23T06:00:42.133Z,100978.59
2023-05-23T06:03:11.122Z,100981.34
2023-05-23T06:05:42.323Z,100980.06
2023-05-23T06:08:21.589Z,100978.81
2023-05-23T06:10:50.121Z,100987.69
2023-05-23T06:13:18.639Z,100988.19
2023-05-23T06:15:47.184Z,100985.94
2023-05-23T06:18:16.319Z,100992.25
2023-05-23T06:20:44.732Z,100991.44
2023-05-23T06:23:14.192Z,100996.78
2023-05-23T06:25:44.063Z,100993.03
2023-05-23T06:28:12.378Z,100993.19
2023-05-23T06:30:41.104Z,101000.47
2023-05-23T06:33:09.736Z,101003.59
2023-05-23T06:35:38.393Z,101011.84
2023-05-23T06:38:12.835Z,101010.22
2023-05-23T06:40:41.686Z,101019.97
2023-05-23T06:43:16.497Z,101024.63
2023-05-23T06:45:46.843Z,101024.13
2023-05-23T06:48:15.132Z,101019.28
2023-05-23T06:50:43.607Z,101023.00
2023-05-23T06:53:12.085Z,101030.13
2023-05-23T06:55:40.387Z,101024.41
2023-05-23T06:58:09.024Z,101026.41
2023-05-23T07:00:39.353Z,101034.25
2023-05-23T07:03:08.082Z,101042.56
2023-05-23T07:05:40.091Z,101036.88
2023-05-23T07:08:10.812Z,101043.84
2023-05-23T07:10:41.691Z,101044.97
2023-05-23T07:13:10.486Z,101056.63
2023-05-23T07:15:40.241Z,101057.63
2023-05-23T07:18:08.845Z,101062.00
2023-05-23T07:20:38.374Z,101061.81
2023-05-23T07:23:06.686Z,101061.31
2023-05-23T07:25:35.097Z,101064.84
2023-05-23T07:28:03.367Z,101065.59
2023-05-23T07:30:33.252Z,101061.53
2023-05-23T07:33:07.785Z,101075.06
2023-05-23T07:35:36.116Z,101071.81
2023-05-23T07:38:05.341Z,101083.06
2023-05-23T07:40:33.680Z,101087.16
2023-05-23T07:43:01.990Z,101079.91
2023-05-23T07:45:30.435Z,101083.25
2023-05-23T07:47:58.812Z,101090.09
2023-05-23T07:50:28.559Z,101095.91
2023-05-23T07:52:56.876Z,101101.94
2023-05-23T07:55:25.552Z,101095.94
2023-05-23T07:57:54.989Z,101095.63
2023-05-23T08:00:23.421Z,101098.56
2023-05-23T08:02:52.301Z,101101.19
2023-05-23T08:05:22.827Z,101094.63
2023-05-23T08:07:54.338Z,101100.63
2023-05-23T08:10:22.837Z,101102.72
2023-05-23T08:12:51.305Z,101110.19
2023-05-23T08:15:19.849Z,101114.41
2023-05-23T08:17:48.436Z,101122.16
2023-05-23T08:20:16.970Z,101114.59
2023-05-23T08:22:45.541Z,101116.50
2023-05-23T08:25:15.220Z,101128.03
2023-05-23T08:27:43.527Z,101116.63
2023-05-23T08:30:12.632Z,101129.94
2023-05-23T08:32:41.054Z,101131.53
2023-05-23T08:35:09.636Z,101135.09
2023-05-23T08:37:38.144Z,101132.16
2023-05-23T08:40:08.869Z,101142.56
2023-05-23T08:42:38.816Z,101147.31
2023-05-23T08:45:07.808Z,101138.75
2023-05-23T08:47:38.656Z,101145.06
2023-05-23T08:50:08.145Z,101147.63
2023-05-23T08:52:38.878Z,101154.22
2023-05-23T08:55:07.943Z,101154.69
2023-05-23T08:57:38.025Z,101158.22
2023-05-23T09:00:14.759Z,101153.47
2023-05-23T09:02:45.086Z,101155.03
2023-05-23T09:05:14.035Z,101171.19
2023-05-23T09:07:42.770Z,101178.03
2023-05-23T09:10:12.263Z,101177.88
2023-05-23T09:12:40.667Z,101182.16
2023-05-23T09:15:11.549Z,101182.16
2023-05-23T09:17:54.760Z,101174.19
2023-05-23T09:20:23.131Z,101178.19
2023-05-23T09:22:51.530Z,101180.19
2023-05-23T09:25:20.076Z,101178.69
2023-05-23T09:27:48.538Z,101182.84
2023-05-23T09:30:18.658Z,101186.28
2023-05-23T09:33:00.201Z,101188.38
2023-05-23T09:35:30.764Z,101195.56
2023-05-23T09:38:00.207Z,101194.81
2023-05-23T09:40:32.948Z,101195.34
2023-05-23T09:43:03.569Z,101203.13
2023-05-23T09:45:34.151Z,101201.75
2023-05-23T09:48:02.747Z,101208.63
2023-05-23T09:50:32.359Z,101212.69
2023-05-23T09:53:01.423Z,101214.81
2023-05-23T09:55:29.812Z,101213.38
2023-05-23T09:57:59.675Z,101220.94
2023-05-23T10:00:28.615Z,101224.44
2023-05-23T10:03:08.095Z,101208.59
2023-05-23T10:05:39.124Z,101218.53
2023-05-23T10:08:10.677Z,101222.63
2023-05-23T10:11:02.672Z,101218.00
2023-05-23T10:13:33.067Z,101216.38
2023-05-23T10:16:16.595Z,101222.56
2023-05-23T10:18:48.426Z,101220.97
2023-05-23T10:21:20.988Z,101215.53
2023-05-23T10:23:57.336Z,101220.88
2023-05-23T10:26:28.377Z,101213.03
2023-05-23T10:28:58.386Z,101222.03
2023-05-23T10:31:28.146Z,101209.94
2023-05-23T10:34:01.950Z,101212.19
2023-05-23T10:36:34.658Z,101204.44
2023-05-23T10:39:07.851Z,101212.91
2023-05-23T10:41:40.044Z,101208.66
2023-05-23T10:44:11.638Z,101218.53
2023-05-23T10:46:54.020Z,101221.44
2023-05-23T10:49:39.141Z,101216.72
2023-05-23T10:52:08.295Z,101223.16
2023-05-23T10:54:37.051Z,101233.91
2023-05-23T10:57:06.268Z,101227.91
2023-05-23T10:59:34.666Z,101230.91
2023-05-23T11:02:04.548Z,101234.38
2023-05-23T11:04:34.905Z,101241.91
2023-05-23T11:07:03.280Z,101240.38
2023-05-23T11:09:31.597Z,101240.34
2023-05-23T11:12:05.468Z,101241.94
2023-05-23T11:14:35.738Z,101241.84
2023-05-23T11:17:16.449Z,101250.31
2023-05-23T11:19:59.859Z,101254.97
2023-05-23T11:22:28.807Z,101253.53
2023-05-23T11:24:58.114Z,101254.66
2023-05-23T11:27:29.890Z,101257.09
2023-05-23T11:29:58.993Z,101257.81
2023-05-23T11:32:29.088Z,101253.47
2023-05-23T11:35:00.001Z,101245.09
2023-05-23T11:37:28.597Z,101254.44
2023-05-23T11:39:56.945Z,101252.91
2023-05-23T11:42:25.244Z,101256.84
2023-05-23T11:44:53.895Z,101256.75
2023-05-23T11:47:22.412Z,101253.06
2023-05-23T11:49:51.285Z,101264.06
2023-05-23T11:52:21.171Z,101250.59
2023-05-23T11:54:49.624Z,101258.88
2023-05-23T11:57:18.110Z,101262.31
2023-05-23T11:59:47.245Z,101259.09
2023-05-23T12:02:16.087Z,101258.03
2023-05-23T12:04:44.542Z,101252.06
2023-05-23T12:07:13.096Z,101252.78
2023-05-23T12:09:46.577Z,101253.94
2023-05-23T12:12:15.279Z,101255.28
2023-05-23T12:14:44.766Z,101246.38
2023-05-23T12:17:13.974Z,101245.84
2023-05-23T12:19:46.804Z,101246.44
2023-05-23T12:22:15.189Z,101253.34
2023-05-23T12:24:48.016Z,101261.66
2023-05-23T12:27:17.463Z,101252.69
2023-05-23T12:29:51.111Z,101254.91
2023-05-23T12:32:19.639Z,101243.22
2023-05-23T12:34:48.164Z,101252.31
2023-05-23T12:37:20.519Z,101243.66
2023-05-23T12:39:51.037Z,101255.06
2023-05-23T12:42:19.453Z,101256.34
2023-05-23T12:44:52.909Z,101256.19
2023-05-23T12:47:21.989Z,101243.72
2023-05-23T12:49:50.553Z,101241.59
2023-05-23T12:52:19.183Z,101239.97
2023-05-23T12:54:47.678Z,101241.47
2023-05-23T12:57:17.410Z,101250.81
2023-05-23T12:59:45.986Z,101244.44
2023-05-23T13:02:14.232Z,101251.09
2023-05-23T13:04:42.600Z,101242.22
2023-05-23T13:07:10.884Z,101250.69
2023-05-23T13:09:40.000Z,101247.00
2023-05-23T13:12:09.282Z,101246.00
2023-05-23T13:14:39.028Z,101249.38
2023-05-23T13:17:07.495Z,101252.88
2023-05-23T13:19:36.443Z,101248.78
2023-05-23T13:22:05.930Z,101256.13
2023-05-23T13:24:36.332Z,101244.28
2023-05-23T13:27:05.444Z,101250.78
2023-05-23T13:29:34.018Z,101239.47
2023-05-23T13:32:23.623Z,101237.50
2023-05-23T13:34:52.114Z,101239.97
2023-05-23T13:37:22.762Z,101242.03
2023-05-23T13:39:51.012Z,101246.03
2023-05-23T13:42:19.381Z,101252.75
2023-05-23T13:44:47.628Z,101241.59
2023-05-23T13:47:16.686Z,101246.00
2023-05-23T13:49:46.960Z,101230.69
2023-05-23T13:52:15.302Z,101238.81
2023-05-23T13:54:43.704Z,101248.03
2023-05-23T13:57:12.117Z,101250.84
2023-05-23T13:59:40.510Z,101249.22
2023-05-23T14:02:09.010Z,101248.59
2023-05-23T14:04:37.361Z,101243.91
2023-05-23T14:07:07.185Z,101240.97
2023-05-23T14:09:35.593Z,101253.00
2023-05-23T14:12:04.099Z,101241.38
2023-05-23T14:14:32.393Z,101240.41
2023-05-23T14:17:01.172Z,101246.25
2023-05-23T14:19:29.781Z,101245.81
2023-05-23T14:22:01.899Z,101235.03
2023-05-23T14:24:34.759Z,101241.31
2023-05-23T14:27:03.713Z,101254.19
2023-05-23T14:29:32.051Z,101250.50
2023-05-23T14:32:02.979Z,101249.78
2023-05-23T14:34:32.165Z,101244.66
2023-05-23T14:37:02.016Z,101242.13
2023-05-23T14:39:30.526Z,101255.16
2023-05-23T14:42:00.474Z,101256.38
2023-05-23T14:44:31.257Z,101253.69
2023-05-23T14:47:03.318Z,101249.25
2023-05-23T14:49:31.699Z,101245.00
2023-05-23T14:52:00.171Z,101253.13
2023-05-23T14:54:28.472Z,101255.97
2023-05-23T14:56:56.843Z,101255.69
2023-05-23T14:59:29.024Z,101253.72
2023-05-23T15:01:58.359Z,101258.75
2023-05-23T15:04:27.329Z,101263.69
2023-05-23T15:06:56.261Z,101253.34
2023-05-23T15:09:25.132Z,101256.75
2023-05-23T15:11:58.227Z,101259.53
2023-05-23T15:14:29.572Z,101254.69
2023-05-23T15:16:59.219Z,101263.59
2023-05-23T15:19:27.534Z,101263.06
2023-05-23T15:21:56.014Z,101263.69
2023-05-23T15:24:24.862Z,101260.69
2023-05-23T15:26:53.415Z,101254.56
2023-05-23T15:29:23.878Z,101265.41
2023-05-23T15:31:54.774Z,101269.47
2023-05-23T15:34:23.638Z,101263.88
2023-05-23T15:36:53.475Z,101259.34
2023-05-23T15:39:22.455Z,101260.41
2023-05-23T15:41:58.232Z,101261.91
2023-05-23T15:44:26.766Z,101257.28
2023-05-23T15:46:56.905Z,101254.19
2023-05-23T15:49:26.877Z,101268.06
2023-05-23T15:51:55.893Z,101258.53
2023-05-23T15:54:24.729Z,101268.47
2023-05-23T15:56:53.232Z,101256.38
2023-05-23T15:59:27.102Z,101260.56
2023-05-23T16:01:57.110Z,101259.28
2023-05-23T16:04:27.255Z,101257.09
2023-05-23T16:06:55.946Z,101261.66
2023-05-23T16:09:24.503Z,101257.88
2023-05-23T16:11:54.041Z,101258.38
2023-05-23T16:14:23.229Z,101264.41
2023-05-23T16:16:52.272Z,101257.19
2023-05-23T16:19:22.563Z,101263.81
2023-05-23T16:21:51.111Z,101264.03
2023-05-23T16:24:19.535Z,101263.47
2023-05-23T16:26:48.169Z,101265.06
2023-05-23T16:29:16.913Z,101256.72
2023-05-23T16:31:46.040Z,101261.22
2023-05-23T16:34:18.171Z,101258.53
2023-05-23T16:36:47.945Z,101257.53
2023-05-23T16:39:16.487Z,101256.34
2023-05-23T16:41:45.036Z,101271.84
2023-05-23T16:44:20.130Z,101263.31
2023-05-23T16:46:49.287Z,101262.72
2023-05-23T16:49:18.202Z,101268.38
2023-05-23T16:51:49.908Z,101263.00
2023-05-23T16:54:19.514Z,101263.94
2023-05-23T16:56:48.270Z,101252.16
2023-05-23T16:59:21.887Z,101267.16
2023-05-23T17:01:51.578Z,101268.00
2023-05-23T17:04:20.797Z,101269.47
2023-05-23T17:06:51.821Z,101272.66
2023-05-23T17:09:22.276Z,101271.38
2023-05-23T17:11:55.097Z,101269.47
2023-05-23T17:14:23.511Z,101273.38
2023-05-23T17:16:52.558Z,101274.69
2023-05-23T17:19:21.621Z,101275.66
2023-05-23T17:21:52.024Z,101277.13
2023-05-23T17:24:20.862Z,101279.25
2023-05-23T17:26:52.218Z,101281.34
2023-05-23T17:29:21.191Z,101280.31
2023-05-23T17:31:51.515Z,101281.28
2023-05-23T17:34:20.023Z,101286.75
2023-05-23T17:36:48.834Z,101278.56
2023-05-23T17:39:24.821Z,101276.09
2023-05-23T17:41:53.761Z,101287.06
2023-05-23T17:44:22.636Z,101281.78
2023-05-23T17:46:51.367Z,101277.28
2023-05-23T17:49:19.821Z,101280.81
2023-05-23T17:51:48.430Z,101292.34
2023-05-23T17:54:16.818Z,101293.00
2023-05-23T17:56:46.776Z,101285.34
2023-05-23T17:59:16.629Z,101294.34
2023-05-23T18:01:44.918Z,101294.59
2023-05-23T18:04:13.597Z,101289.06
2023-05-23T18:06:42.469Z,101295.19
2023-05-23T18:09:11.810Z,101301.63
2023-05-23T18:11:40.066Z,101304.88
2023-05-23T18:14:10.599Z,101292.47
2023-05-23T18:16:39.354Z,101305.34
2023-05-23T18:19:08.262Z,101292.78
2023-05-23T18:21:36.888Z,101310.34
2023-05-23T18:24:06.251Z,101310.16
2023-05-23T18:26:34.778Z,101306.00
2023-05-23T18:29:04.538Z,101302.03
2023-05-23T18:31:34.485Z,101301.44
2023-05-23T18:34:02.842Z,101292.66
2023-05-23T18:36:34.102Z,101300.50
2023-05-23T18:39:05.460Z,101310.28
2023-05-23T18:41:33.918Z,101313.44
2023-05-23T18:44:02.566Z,101315.91
2023-05-23T18:46:30.927Z,101324.34
2023-05-23T18:49:02.217Z,101321.97
2023-05-23T18:51:32.435Z,101321.38
2023-05-23T18:54:02.976Z,101330.00
2023-05-23T18:56:34.978Z,101339.94
2023-05-23T18:59:03.803Z,101337.78
2023-05-23T19:01:32.416Z,101334.06
2023-05-23T19:04:05.025Z,101347.44
2023-05-23T19:06:33.503Z,101345.13
2023-05-23T19:09:01.902Z,101351.22
2023-05-23T19:11:30.449Z,101356.44
2023-05-23T19:13:58.658Z,101362.00
2023-05-23T19:16:27.612Z,101372.81
2023-05-23T19:18:56.032Z,101372.44
2023-05-23T19:21:25.712Z,101372.94
2023-05-23T19:23:54.040Z,101373.16
2023-05-23T19:26:22.275Z,101383.75
2023-05-23T19:28:53.867Z,101380.66
2023-05-23T19:31:22.384Z,101387.88
2023-05-23T19:33:51.142Z,101385.56
2023-05-23T19:36:19.797Z,101384.47
2023-05-23T19:38:50.069Z,101383.22
2023-05-23T19:41:20.260Z,101382.47
2023-05-23T19:43:49.131Z,101385.13
2023-05-23T19:46:18.465Z,101396.47
2023-05-23T19:48:46.966Z,101394.38
2023-05-23T19:51:16.063Z,101396.34
2023-05-23T19:53:44.355Z,101409.00
2023-05-23T19:56:14.237Z,101407.97
2023-05-23T19:58:42.900Z,101420.06
2023-05-23T20:01:11.502Z,101414.59
2023-05-23T20:03:39.959Z,101420.41
2023-05-23T20:06:08.308Z,101428.97
2023-05-23T20:08:36.663Z,101430.16
2023-05-23T20:11:05.465Z,101430.72
2023-05-23T20:13:35.333Z,101434.50
2023-05-23T20:16:03.977Z,101431.84
2023-05-23T20:18:32.289Z,101435.66
2023-05-23T20:21:02.889Z,101436.50
2023-05-23T20:23:32.892Z,101441.22
2023-05-23T20:26:01.890Z,101448.03
2023-05-23T20:28:36.250Z,101450.03
2023-05-23T20:31:04.935Z,101453.91
2023-05-23T20:33:34.398Z,101464.31
2023-05-23T20:36:03.620Z,101461.84
2023-05-23T20:38:34.251Z,101461.63
2023-05-23T20:41:06.353Z,101468.72
2023-05-23T20:43:37.453Z,101466.31
2023-05-23T20:46:07.182Z,101474.28
2023-05-23T20:48:36.010Z,101480.56
2023-05-23T20:51:06.478Z,101474.84
2023-05-23T20:53:35.058Z,101482.50
2023-05-23T20:56:08.270Z,101480.63
2023-05-23T20:58:38.178Z,101483.63
2023-05-23T21:01:08.085Z,101485.00
2023-05-23T21:03:36.924Z,101485.25
2023-05-23T21:06:06.119Z,101494.00
2023-05-23T21:08:34.950Z,101485.28
2023-05-23T21:11:03.786Z,101485.81
2023-05-23T21:13:32.113Z,101486.63
2023-05-23T21:16:02.175Z,101487.44
2023-05-23T21:18:30.917Z,101496.75
2023-05-23T21:20:59.180Z,101489.63
2023-05-23T21:23:27.902Z,101492.91
2023-05-23T21:25:56.941Z,101483.06
2023-05-23T21:28:25.490Z,101497.84
2023-05-23T21:30:54.160Z,101502.19
2023-05-23T21:33:24.253Z,101504.91
2023-05-23T21:35:52.985Z,101503.25
2023-05-23T21:38:21.457Z,101499.44
2023-05-23T21:40:49.993Z,101496.41
2023-05-23T21:43:18.929Z,101493.41
2023-05-23T21:45:47.229Z,101481.94
2023-05-23T21:48:15.722Z,101492.84
2023-05-23T21:50:45.480Z,101480.47
2023-05-23T21:53:14.477Z,101491.97
2023-05-23T21:55:42.819Z,101485.09
2023-05-23T21:58:11.656Z,101490.81
2023-05-23T22:00:45.621Z,101495.44
2023-05-23T22:03:14.634Z,101492.41
2023-05-23T22:05:45.585Z,101493.97
2023-05-23T22:08:16.296Z,101488.75
2023-05-23T22:10:44.702Z,101488.22
2023-05-23T22:13:17.548Z,101498.56
2023-05-23T22:16:00.668Z,101496.94
2023-05-23T22:18:34.594Z,101494.69
2023-05-23T22:21:12.159Z,101491.09
2023-05-23T22:23:43.519Z,101480.44
2023-05-23T22:26:13.106Z,101488.06
2023-05-23T22:28:41.379Z,101491.31
2023-05-23T22:31:12.109Z,101483.44
2023-05-23T22:33:45.261Z,101484.69
2023-05-23T22:36:17.727Z,101475.94
2023-05-23T22:38:50.105Z,101480.25
2023-05-23T22:41:18.586Z,101486.53
2023-05-23T22:43:50.892Z,101487.00
2023-05-23T22:46:19.974Z,101485.72
2023-05-23T22:48:49.463Z,101487.09
2023-05-23T22:51:19.720Z,101490.03
2023-05-23T22:53:48.031Z,101487.25
2023-05-23T22:56:17.774Z,101484.00
2023-05-23T22:58:46.081Z,101488.34
2023-05-23T23:01:14.675Z,101495.38
2023-05-23T23:03:43.744Z,101501.91
2023-05-23T23:06:12.213Z,101484.44
2023-05-23T23:08:42.333Z,101484.44
2023-05-23T23:11:10.885Z,101488.75
2023-05-23T23:13:40.725Z,101487.00
2023-05-23T23:16:12.037Z,101483.31
2023-05-23T23:18:40.283Z,101491.47
2023-05-23T23:21:08.499Z,101490.41
2023-05-23T23:23:38.329Z,101493.31
2023-05-23T23:26:06.651Z,101494.63
2023-05-23T23:28:35.130Z,101498.88
2023-05-23T23:31:04.832Z,101490.94
2023-05-23T23:33:33.153Z,101498.19
2023-05-23T23:36:02.054Z,101488.81
2023-05-23T23:38:30.444Z,101499.56
2023-05-23T23:40:59.167Z,101498.63
2023-05-23T23:43:27.474Z,101489.63
2023-05-23T23:45:56.082Z,101491.97
2023-05-23T23:48:25.727Z,101503.06
2023-05-23T23:50:54.139Z,101510.59
2023-05-23T23:53:22.507Z,101502.38
2023-05-23T23:55:50.994Z,101502.28
2023-05-23T23:58:19.236Z,101501.91
